sensor_id;sensor_type;location;lat;lon;timestamp;P1;P2;P0
76330;PMS7003;65148;51.912;15.570;2023-03-14T00:11:37;0;0;0
76330;PMS7003;65148;51.912;15.570;2023-03-14T00:26:38;0;0;0
76330;PMS7003;65148;51.912;15.570;2023-03-14T00:41:54;0;0;0
76330;PMS7003;65148;51.912;15.570;2023-03-14T00:56:56;0;0;0
76330;PMS7003;65148;51.912;15.570;2023-03-14T01:11:57;4;2;1
76330;PMS7003;65148;51.912;15.570;2023-03-14T01:26:58;6;4;3
76330;PMS7003;65148;51.912;15.570;2023-03-14T01:42:16;1;1;0
76330;PMS7003;65148;51.912;15.570;2023-03-14T01:57:18;5;3;2
76330;PMS7003;65148;51.912;15.570;2023-03-14T02:12:22;5;0;0
76330;PMS7003;65148;51.912;15.570;2023-03-14T02:27:24;0;0;0
76330;PMS7003;65148;51.912;15.570;2023-03-14T02:42:39;1;0;0
76330;PMS7003;65148;51.912;15.570;2023-03-14T02:57:41;3;2;1
76330;PMS7003;65148;51.912;15.570;2023-03-14T03:12:42;2;1;1
76330;PMS7003;65148;51.912;15.570;2023-03-14T03:27:44;1;0;0
76330;PMS7003;65148;51.912;15.570;2023-03-14T03:43:01;2;1;1
76330;PMS7003;65148;51.912;15.570;2023-03-14T03:58:04;2;1;1
76330;PMS7003;65148;51.912;15.570;2023-03-14T04:13:05;3;2;1
76330;PMS7003;65148;51.912;15.570;2023-03-14T04:28:06;2;0;0
76330;PMS7003;65148;51.912;15.570;2023-03-14T04:43:25;2;2;2
76330;PMS7003;65148;51.912;15.570;2023-03-14T04:58:26;7;5;4
76330;PMS7003;65148;51.912;15.570;2023-03-14T05:13:27;3;1;1
76330;PMS7003;65148;51.912;15.570;2023-03-14T05:28:28;5;1;1
76330;PMS7003;65148;51.912;15.570;2023-03-14T05:43:48;1;0;0
76330;PMS7003;65148;51.912;15.570;2023-03-14T05:58:49;0;0;0
76330;PMS7003;65148;51.912;15.570;2023-03-14T06:13:51;1;1;1
76330;PMS7003;65148;51.912;15.570;2023-03-14T06:28:55;1;1;1
76330;PMS7003;65148;51.912;15.570;2023-03-14T06:44:13;2;1;1
76330;PMS7003;65148;51.912;15.570;2023-03-14T06:59:14;8;4;4
76330;PMS7003;65148;51.912;15.570;2023-03-14T07:14:15;4;3;2
76330;PMS7003;65148;51.912;15.570;2023-03-14T07:29:16;1;1;0
76330;PMS7003;65148;51.912;15.570;2023-03-14T07:44:37;3;3;3
76330;PMS7003;65148;51.912;15.570;2023-03-14T07:59:38;5;3;2
76330;PMS7003;65148;51.912;15.570;2023-03-14T08:14:39;5;4;3
76330;PMS7003;65148;51.912;15.570;2023-03-14T08:29:40;3;2;1
76330;PMS7003;65148;51.912;15.570;2023-03-14T08:44:59;3;2;2
76330;PMS7003;65148;51.912;15.570;2023-03-14T09:00:00;1;1;1
76330;PMS7003;65148;51.912;15.570;2023-03-14T09:15:01;0;0;0
76330;PMS7003;65148;51.912;15.570;2023-03-14T09:30:03;1;0;0
76330;PMS7003;65148;51.912;15.570;2023-03-14T09:45:29;0;0;0
76330;PMS7003;65148;51.912;15.570;2023-03-14T10:00:40;0;0;0
76330;PMS7003;65148;51.912;15.570;2023-03-14T10:15:41;0;0;0
76330;PMS7003;65148;51.912;15.570;2023-03-14T10:31:01;0;0;0
76330;PMS7003;65148;51.912;15.570;2023-03-14T10:46:08;0;0;0
76330;PMS7003;65148;51.912;15.570;2023-03-14T11:01:22;0;0;0
76330;PMS7003;65148;51.912;15.570;2023-03-14T11:32:01;0;0;0
76330;PMS7003;65148;51.912;15.570;2023-03-14T11:47:39;0;0;0
76330;PMS7003;65148;51.912;15.570;2023-03-14T12:17:56;0;0;0
76330;PMS7003;65148;51.912;15.570;2023-03-14T12:33:19;0;0;0
76330;PMS7003;65148;51.912;15.570;2023-03-14T12:48:23;0;0;0
76330;PMS7003;65148;51.912;15.570;2023-03-14T13:03:26;0;0;0
76330;PMS7003;65148;51.912;15.570;2023-03-14T13:19:09;2;2;2
76330;PMS7003;65148;51.912;15.570;2023-03-14T13:34:13;0;0;0
76330;PMS7003;65148;51.912;15.570;2023-03-14T13:49:21;0;0;0
76330;PMS7003;65148;51.912;15.570;2023-03-14T14:21:36;2;1;1
76330;PMS7003;65148;51.912;15.570;2023-03-14T14:37:02;0;0;0
76330;PMS7003;65148;51.912;15.570;2023-03-14T14:52:09;0;0;0
76330;PMS7003;65148;51.912;15.570;2023-03-14T15:07:14;1;1;1
76330;PMS7003;65148;51.912;15.570;2023-03-14T15:22:41;1;1;1
76330;PMS7003;65148;51.912;15.570;2023-03-14T15:37:46;6;5;4
76330;PMS7003;65148;51.912;15.570;2023-03-14T15:52:48;0;0;0
76330;PMS7003;65148;51.912;15.570;2023-03-14T16:07:50;0;0;0
76330;PMS7003;65148;51.912;15.570;2023-03-14T16:23:05;5;4;4
76330;PMS7003;65148;51.912;15.570;2023-03-14T16:38:06;5;4;3
76330;PMS7003;65148;51.912;15.570;2023-03-14T16:53:08;9;6;5
76330;PMS7003;65148;51.912;15.570;2023-03-14T17:08:09;54;43;26
76330;PMS7003;65148;51.912;15.570;2023-03-14T17:23:29;47;40;29
76330;PMS7003;65148;51.912;15.570;2023-03-14T17:38:34;54;40;27
76330;PMS7003;65148;51.912;15.570;2023-03-14T17:53:37;15;14;12
76330;PMS7003;65148;51.912;15.570;2023-03-14T18:08:38;50;40;27
76330;PMS7003;65148;51.912;15.570;2023-03-14T18:23:55;0;0;0
76330;PMS7003;65148;51.912;15.570;2023-03-14T18:38:56;3;1;0
76330;PMS7003;65148;51.912;15.570;2023-03-14T18:53:58;0;0;0
76330;PMS7003;65148;51.912;15.570;2023-03-14T19:09:00;0;0;0
76330;PMS7003;65148;51.912;15.570;2023-03-14T19:24:18;0;0;0
76330;PMS7003;65148;51.912;15.570;2023-03-14T19:39:22;1;1;0
76330;PMS7003;65148;51.912;15.570;2023-03-14T19:54:25;0;0;0
76330;PMS7003;65148;51.912;15.570;2023-03-14T20:09:26;4;1;1
76330;PMS7003;65148;51.912;15.570;2023-03-14T20:24:46;3;3;3
76330;PMS7003;65148;51.912;15.570;2023-03-14T20:39:48;7;5;4
76330;PMS7003;65148;51.912;15.570;2023-03-14T20:54:51;12;5;3
76330;PMS7003;65148;51.912;15.570;2023-03-14T21:09:52;3;3;3
76330;PMS7003;65148;51.912;15.570;2023-03-14T21:25:11;5;3;2
76330;PMS7003;65148;51.912;15.570;2023-03-14T21:40:12;3;2;2
76330;PMS7003;65148;51.912;15.570;2023-03-14T21:55:14;0;0;0
76330;PMS7003;65148;51.912;15.570;2023-03-14T22:10:19;4;3;1
76330;PMS7003;65148;51.912;15.570;2023-03-14T22:40:46;0;0;0
76330;PMS7003;65148;51.912;15.570;2023-03-14T22:55:55;0;0;0
76330;PMS7003;65148;51.912;15.570;2023-03-14T23:11:17;0;0;0
76330;PMS7003;65148;51.912;15.570;2023-03-14T23:26:22;0;0;0
76330;PMS7003;65148;51.912;15.570;2023-03-14T23:41:24;3;0;0
76330;PMS7003;65148;51.912;15.570;2023-03-14T23:56:26;2;0;0
